createdAt,value
2022-11-27T00:01:37.357Z,17.33
2022-11-27T00:04:13.929Z,16.35
2022-11-27T00:06:42.578Z,17.83
2022-11-27T00:09:15.160Z,18.00
2022-11-27T00:11:44.382Z,16.75
2022-11-27T00:16:42.233Z,16.67
2022-11-27T00:19:12.953Z,18.60
2022-11-27T00:21:41.151Z,15.95
2022-11-27T00:24:12.697Z,16.65
2022-11-27T00:26:40.926Z,16.67
2022-11-27T00:29:09.374Z,16.93
2022-11-27T00:31:38.517Z,16.63
2022-11-27T00:34:09.200Z,16.45
2022-11-27T00:36:41.162Z,16.63
2022-11-27T00:39:12.489Z,16.70
2022-11-27T00:41:40.707Z,17.05
2022-11-27T00:44:09.117Z,15.75
2022-11-27T00:46:37.355Z,15.90
2022-11-27T00:49:07.662Z,15.60
2022-11-27T00:51:36.493Z,16.92
2022-11-27T00:54:06.872Z,15.50
2022-11-27T00:56:36.296Z,16.73
2022-11-27T00:59:06.313Z,15.35
2022-11-27T01:01:36.558Z,16.38
2022-11-27T01:04:07.650Z,15.40
2022-11-27T01:06:36.190Z,15.35
2022-11-27T01:09:06.883Z,14.88
2022-11-27T01:11:36.226Z,15.55
2022-11-27T01:14:07.136Z,16.02
2022-11-27T01:16:36.418Z,15.98
2022-11-27T01:19:07.065Z,14.27
2022-11-27T01:21:36.297Z,16.33
2022-11-27T01:24:07.314Z,14.30
2022-11-27T01:26:35.439Z,13.43
2022-11-27T01:29:06.761Z,14.07
2022-11-27T01:31:35.895Z,14.52
2022-11-27T01:34:08.912Z,14.18
2022-11-27T01:36:37.244Z,12.70
2022-11-27T01:39:07.062Z,14.38
2022-11-27T01:46:39.477Z,12.40
2022-11-27T01:49:25.818Z,13.23
2022-11-27T01:51:57.796Z,12.00
2022-11-27T01:54:32.944Z,11.88
2022-11-27T01:57:06.270Z,11.65
2022-11-27T01:59:35.267Z,10.68
2022-11-27T02:02:05.000Z,11.32
2022-11-27T02:04:33.655Z,10.50
2022-11-27T02:07:02.459Z,10.30
2022-11-27T02:09:33.053Z,9.98
2022-11-27T02:12:10.315Z,9.32
2022-11-27T02:14:46.112Z,8.82
2022-11-27T02:17:21.338Z,8.23
2022-11-27T02:20:14.945Z,7.60
2022-11-27T02:22:58.738Z,8.48
2022-11-27T02:25:35.774Z,7.82
2022-11-27T02:28:26.065Z,7.32
2022-11-27T02:31:04.153Z,7.10
2022-11-27T02:33:36.378Z,7.50
2022-11-27T02:36:11.101Z,7.95
2022-11-27T02:38:43.589Z,7.57
2022-11-27T02:41:16.946Z,8.07
2022-11-27T02:43:49.523Z,7.32
2022-11-27T02:46:21.579Z,6.93
2022-11-27T02:48:52.590Z,6.22
2022-11-27T02:51:25.109Z,6.28
2022-11-27T02:53:56.627Z,7.25
2022-11-27T02:56:28.034Z,6.45
2022-11-27T02:59:01.041Z,7.50
2022-11-27T03:01:35.295Z,6.85
2022-11-27T03:04:10.132Z,6.35
2022-11-27T03:06:43.537Z,6.53
2022-11-27T03:09:18.289Z,6.15
2022-11-27T03:11:47.450Z,5.63
2022-11-27T03:14:16.657Z,5.43
2022-11-27T03:16:53.898Z,5.70
2022-11-27T03:19:26.904Z,5.93
2022-11-27T03:21:58.030Z,5.85
2022-11-27T03:24:26.889Z,5.55
2022-11-27T03:26:55.530Z,4.82
2022-11-27T03:29:29.477Z,6.03
2022-11-27T03:32:19.677Z,5.30
2022-11-27T03:34:49.225Z,5.35
2022-11-27T03:37:17.526Z,4.80
2022-11-27T03:39:51.491Z,5.70
2022-11-27T03:42:26.919Z,5.35
2022-11-27T03:45:04.667Z,5.78
2022-11-27T03:47:46.526Z,5.43
2022-11-27T03:50:23.927Z,5.35
2022-11-27T03:52:58.342Z,5.50
2022-11-27T03:55:33.240Z,5.95
2022-11-27T03:58:05.177Z,7.18
2022-11-27T04:00:38.363Z,6.75
2022-11-27T04:03:11.625Z,7.78
2022-11-27T04:05:41.106Z,8.48
2022-11-27T04:08:09.279Z,8.60
2022-11-27T04:10:37.713Z,9.20
2022-11-27T04:13:05.942Z,8.60
2022-11-27T04:15:34.607Z,9.63
2022-11-27T04:18:02.724Z,9.27
2022-11-27T04:20:32.798Z,10.07
2022-11-27T04:23:00.965Z,11.18
2022-11-27T04:25:29.603Z,10.20
2022-11-27T04:27:57.755Z,11.00
2022-11-27T04:30:26.377Z,11.43
2022-11-27T04:32:54.835Z,10.98
2022-11-27T04:35:23.529Z,11.68
2022-11-27T04:37:53.248Z,11.50
2022-11-27T04:40:21.650Z,12.05
2022-11-27T04:42:50.173Z,12.05
2022-11-27T04:45:18.783Z,11.18
2022-11-27T04:47:46.906Z,11.93
2022-11-27T04:50:17.885Z,11.98
2022-11-27T04:52:46.021Z,11.63
2022-11-27T04:55:16.236Z,11.48
2022-11-27T04:57:44.501Z,12.63
2022-11-27T05:00:13.925Z,12.57
2022-11-27T05:02:42.380Z,11.88
2022-11-27T05:05:10.981Z,11.93
2022-11-27T05:07:39.210Z,12.73
2022-11-27T05:10:09.400Z,11.77
2022-11-27T05:12:38.926Z,11.32
2022-11-27T05:15:09.384Z,13.07
2022-11-27T05:17:37.497Z,11.40
2022-11-27T05:20:07.748Z,12.18
2022-11-27T05:22:35.990Z,11.68
2022-11-27T05:25:04.963Z,12.10
2022-11-27T05:27:33.041Z,11.50
2022-11-27T05:30:03.841Z,11.05
2022-11-27T05:32:32.663Z,10.57
2022-11-27T05:35:01.186Z,11.77
2022-11-27T05:37:29.383Z,11.82
2022-11-27T05:39:57.863Z,11.77
2022-11-27T05:42:26.018Z,11.63
2022-11-27T05:44:58.234Z,10.80
2022-11-27T05:47:28.217Z,12.10
2022-11-27T05:49:56.781Z,12.50
2022-11-27T05:52:24.888Z,12.35
2022-11-27T05:54:54.997Z,13.37
2022-11-27T05:57:23.594Z,13.43
2022-11-27T05:59:52.183Z,12.77
2022-11-27T06:02:23.856Z,12.27
2022-11-27T06:04:58.062Z,13.68
2022-11-27T06:07:26.284Z,13.35
2022-11-27T06:09:56.245Z,13.73
2022-11-27T06:12:24.738Z,12.70
2022-11-27T06:14:53.142Z,13.73
2022-11-27T06:17:21.245Z,13.23
2022-11-27T06:19:49.902Z,13.97
2022-11-27T06:22:19.394Z,12.70
2022-11-27T06:24:47.872Z,13.60
2022-11-27T06:27:16.457Z,13.93
2022-11-27T06:29:44.859Z,14.07
2022-11-27T06:32:12.992Z,13.88
2022-11-27T06:34:42.105Z,15.13
2022-11-27T06:37:13.123Z,15.38
2022-11-27T06:39:43.572Z,14.23
2022-11-27T06:42:11.778Z,13.93
2022-11-27T06:44:40.734Z,13.98
2022-11-27T06:47:09.205Z,14.52
2022-11-27T06:49:37.646Z,13.63
2022-11-27T06:52:06.485Z,14.30
2022-11-27T06:54:34.918Z,14.50
2022-11-27T06:57:04.781Z,14.27
2022-11-27T06:59:33.216Z,14.27
2022-11-27T07:02:01.424Z,15.13
2022-11-27T07:04:30.138Z,13.37
2022-11-27T07:06:58.837Z,15.13
2022-11-27T07:09:27.377Z,13.77
2022-11-27T07:11:55.619Z,13.57
2022-11-27T07:14:43.209Z,13.83
2022-11-27T07:17:11.415Z,14.15
2022-11-27T07:19:39.820Z,14.87
2022-11-27T07:22:07.998Z,14.82
2022-11-27T07:28:03.649Z,15.85
2022-11-27T07:30:34.214Z,13.95
2022-11-27T07:33:14.783Z,16.23
2022-11-27T07:35:43.619Z,15.55
2022-11-27T07:38:11.956Z,14.43
2022-11-27T07:40:40.476Z,15.25
2022-11-27T07:43:09.065Z,14.55
2022-11-27T07:45:43.607Z,13.75
2022-11-27T07:48:11.877Z,13.40
2022-11-27T07:50:41.149Z,14.43
2022-11-27T07:53:09.548Z,13.68
2022-11-27T07:55:39.815Z,14.02
2022-11-27T07:58:08.093Z,12.70
2022-11-27T08:00:37.120Z,13.50
2022-11-27T08:03:06.872Z,13.77
2022-11-27T08:05:36.018Z,12.07
2022-11-27T08:08:05.650Z,13.48
2022-11-27T08:10:37.899Z,12.00
2022-11-27T08:13:06.801Z,12.80
2022-11-27T08:15:36.035Z,11.77
2022-11-27T08:18:04.438Z,12.68
2022-11-27T08:20:34.486Z,12.65
2022-11-27T08:23:03.291Z,12.45
2022-11-27T08:25:32.151Z,12.32
2022-11-27T08:28:02.860Z,12.25
2022-11-27T08:30:31.632Z,12.25
2022-11-27T08:33:00.319Z,14.23
2022-11-27T08:35:29.126Z,12.77
2022-11-27T08:37:59.023Z,12.05
2022-11-27T08:40:29.538Z,14.55
2022-11-27T08:43:01.212Z,14.50
2022-11-27T08:45:29.619Z,13.20
2022-11-27T08:47:58.952Z,12.40
2022-11-27T08:50:28.076Z,12.63
2022-11-27T08:52:56.291Z,12.27
2022-11-27T08:55:26.266Z,12.50
2022-11-27T08:57:54.609Z,13.38
2022-11-27T09:00:27.692Z,12.80
2022-11-27T09:02:56.626Z,12.38
2022-11-27T09:05:25.371Z,13.18
2022-11-27T09:07:53.896Z,12.43
2022-11-27T09:10:23.044Z,12.75
2022-11-27T09:12:53.177Z,10.88
2022-11-27T09:15:21.650Z,10.73
2022-11-27T09:17:52.486Z,11.20
2022-11-27T09:20:21.182Z,10.15
2022-11-27T09:22:49.512Z,9.48
2022-11-27T09:25:18.684Z,11.07
2022-11-27T09:27:46.904Z,11.57
2022-11-27T09:30:17.634Z,10.35
2022-11-27T09:32:45.714Z,16.63
2022-11-27T09:35:14.861Z,15.40
2022-11-27T09:37:43.485Z,12.27
2022-11-27T09:40:17.604Z,12.48
2022-11-27T09:42:55.013Z,11.43
2022-11-27T09:45:27.921Z,13.25
2022-11-27T09:47:59.574Z,12.73
2022-11-27T09:50:31.087Z,12.23
2022-11-27T09:53:04.896Z,11.68
2022-11-27T09:55:38.398Z,13.27
2022-11-27T09:58:12.931Z,12.93
2022-11-27T10:00:45.712Z,12.32
2022-11-27T10:03:15.922Z,12.93
2022-11-27T10:05:49.668Z,12.07
2022-11-27T10:08:27.389Z,12.20
2022-11-27T10:11:09.317Z,12.10
2022-11-27T10:13:52.512Z,13.15
2022-11-27T10:16:30.322Z,12.68
2022-11-27T10:19:06.494Z,13.75
2022-11-27T10:21:44.186Z,14.13
2022-11-27T10:24:22.040Z,13.02
2022-11-27T10:26:54.287Z,12.80
2022-11-27T10:29:47.091Z,12.88
2022-11-27T10:32:53.656Z,11.70
2022-11-27T10:35:16.520Z,12.70
2022-11-27T10:37:50.101Z,14.73
2022-11-27T10:40:24.599Z,14.15
2022-11-27T10:43:00.541Z,13.82
2022-11-27T10:45:39.656Z,12.90
2022-11-27T10:50:37.947Z,12.55
2022-11-27T10:53:11.124Z,13.85
2022-11-27T10:55:55.663Z,15.00
2022-11-27T10:58:32.144Z,12.73
2022-11-27T11:01:13.126Z,12.88
2022-11-27T11:03:43.276Z,13.23
2022-11-27T11:06:21.231Z,12.35
2022-11-27T11:09:01.765Z,12.50
2022-11-27T11:11:30.118Z,12.60
2022-11-27T11:13:58.768Z,13.63
2022-11-27T11:16:35.198Z,14.43
2022-11-27T11:19:09.073Z,14.18
2022-11-27T11:21:40.889Z,12.88
2022-11-27T11:24:17.026Z,12.35
2022-11-27T11:26:49.565Z,13.27
2022-11-27T11:29:28.639Z,13.27
2022-11-27T11:34:30.262Z,14.40
2022-11-27T11:37:00.085Z,13.20
2022-11-27T11:39:32.146Z,12.95
2022-11-27T11:42:01.083Z,14.05
2022-11-27T11:44:37.630Z,13.23
2022-11-27T11:47:09.701Z,12.68
2022-11-27T11:49:39.477Z,12.45
2022-11-27T11:52:22.287Z,12.45
2022-11-27T11:55:00.831Z,12.32
2022-11-27T11:57:53.283Z,11.50
2022-11-27T12:00:28.261Z,12.70
2022-11-27T12:03:24.626Z,12.30
2022-11-27T12:06:10.608Z,12.30
2022-11-27T12:08:52.549Z,12.18
2022-11-27T12:11:25.397Z,11.52
2022-11-27T12:14:11.502Z,11.48
2022-11-27T12:16:48.491Z,11.90
2022-11-27T12:19:54.832Z,10.40
2022-11-27T12:22:46.193Z,10.70
2022-11-27T12:25:26.599Z,9.85
2022-11-27T12:28:10.707Z,10.57
2022-11-27T12:30:48.882Z,11.07
2022-11-27T12:33:34.369Z,10.63
2022-11-27T12:36:13.830Z,12.07
2022-11-27T12:39:02.390Z,11.52
2022-11-27T12:42:02.231Z,11.63
2022-11-27T12:44:40.373Z,11.43
2022-11-27T12:47:15.270Z,11.00
2022-11-27T12:49:48.513Z,10.85
2022-11-27T12:52:21.942Z,10.85
2022-11-27T12:54:58.665Z,12.32
2022-11-27T12:57:35.307Z,10.77
2022-11-27T13:00:07.393Z,11.10
2022-11-27T13:02:39.907Z,12.00
2022-11-27T13:05:13.408Z,10.70
2022-11-27T13:07:45.940Z,12.30
2022-11-27T13:10:27.104Z,12.23
2022-11-27T13:13:04.649Z,11.52
2022-11-27T13:15:41.172Z,11.57
2022-11-27T13:18:19.773Z,13.80
2022-11-27T13:23:21.591Z,12.15
2022-11-27T13:25:55.707Z,12.57
2022-11-27T13:28:31.212Z,13.10
2022-11-27T13:31:01.892Z,12.52
2022-11-27T13:33:39.522Z,11.35
2022-11-27T13:36:18.740Z,12.05
2022-11-27T13:38:56.271Z,12.43
2022-11-27T13:41:32.643Z,12.68
2022-11-27T13:44:01.318Z,12.23
2022-11-27T13:46:32.534Z,12.57
2022-11-27T13:49:05.316Z,13.55
2022-11-27T13:51:37.880Z,15.00
2022-11-27T13:54:12.525Z,15.07
2022-11-27T13:56:43.224Z,14.68
2022-11-27T13:59:19.519Z,14.15
2022-11-27T14:01:59.302Z,15.63
2022-11-27T14:04:28.774Z,14.93
2022-11-27T14:07:03.255Z,13.75
2022-11-27T14:09:46.133Z,16.08
2022-11-27T14:12:21.018Z,13.98
2022-11-27T14:15:04.548Z,15.20
2022-11-27T14:17:39.273Z,15.02
2022-11-27T14:20:22.696Z,14.05
2022-11-27T14:23:13.260Z,13.98
2022-11-27T14:25:42.130Z,13.82
2022-11-27T14:28:16.773Z,16.33
2022-11-27T14:30:49.605Z,21.00
2022-11-27T14:34:07.316Z,14.43
2022-11-27T14:36:39.574Z,12.18
2022-11-27T14:39:11.498Z,11.75
2022-11-27T14:41:44.720Z,13.27
2022-11-27T14:44:25.083Z,13.20
2022-11-27T14:46:54.395Z,15.32
2022-11-27T14:49:25.988Z,13.75
2022-11-27T14:52:13.614Z,13.18
2022-11-27T14:54:44.669Z,14.82
2022-11-27T14:57:20.031Z,14.93
2022-11-27T14:59:50.671Z,14.40
2022-11-27T15:02:26.055Z,15.88
2022-11-27T15:05:05.877Z,16.02
2022-11-27T15:07:47.991Z,15.30
2022-11-27T15:10:34.069Z,13.93
2022-11-27T15:13:04.185Z,16.40
2022-11-27T15:15:40.120Z,16.75
2022-11-27T15:18:10.680Z,18.17
2022-11-27T15:20:42.418Z,18.88
2022-11-27T15:23:18.529Z,17.98
2022-11-27T15:25:49.025Z,16.77
2022-11-27T15:28:29.166Z,21.02
2022-11-27T15:30:59.614Z,23.05
2022-11-27T15:33:29.625Z,22.80
2022-11-27T15:36:20.563Z,21.92
2022-11-27T15:39:03.782Z,22.17
2022-11-27T15:41:32.351Z,25.77
2022-11-27T15:44:00.557Z,25.13
2022-11-27T15:46:35.412Z,22.73
2022-11-27T15:49:03.618Z,24.38
2022-11-27T15:51:32.123Z,26.00
2022-11-27T15:54:04.904Z,25.85
2022-11-27T15:56:36.459Z,25.58
2022-11-27T15:59:22.127Z,27.55
2022-11-27T16:01:55.402Z,27.77
2022-11-27T16:04:23.730Z,25.70
2022-11-27T16:06:52.297Z,27.83
2022-11-27T16:09:20.887Z,30.95
2022-11-27T16:11:52.836Z,29.50
2022-11-27T16:14:21.767Z,28.02
2022-11-27T16:16:52.438Z,26.65
2022-11-27T16:19:21.359Z,25.75
2022-11-27T16:21:49.828Z,23.90
2022-11-27T16:24:18.713Z,25.10
2022-11-27T16:26:47.240Z,25.02
2022-11-27T16:29:27.551Z,28.27
2022-11-27T16:31:57.991Z,22.70
2022-11-27T16:34:26.320Z,24.63
2022-11-27T16:36:58.798Z,26.60
2022-11-27T16:39:27.217Z,26.65
2022-11-27T16:41:56.417Z,25.52
2022-11-27T16:44:25.117Z,27.60
2022-11-27T16:46:53.818Z,26.73
2022-11-27T16:49:26.152Z,23.98
2022-11-27T16:51:55.453Z,23.38
2022-11-27T16:54:23.645Z,22.35
2022-11-27T16:56:52.242Z,25.43
2022-11-27T16:59:20.624Z,27.67
2022-11-27T17:01:49.277Z,30.75
2022-11-27T17:04:21.923Z,23.00
2022-11-27T17:07:02.646Z,25.40
2022-11-27T17:09:31.333Z,24.05
2022-11-27T17:12:00.115Z,26.50
2022-11-27T17:14:29.344Z,28.10
2022-11-27T17:16:57.893Z,28.85
2022-11-27T17:22:35.669Z,25.65
2022-11-27T17:25:27.865Z,24.80
2022-11-27T17:28:08.548Z,29.92
2022-11-27T17:30:46.095Z,42.40
2022-11-27T17:33:14.729Z,36.20
2022-11-27T17:35:45.502Z,31.77
2022-11-27T17:38:21.929Z,31.77
2022-11-27T17:40:50.073Z,39.25
2022-11-27T17:43:20.575Z,32.25
2022-11-27T17:45:49.194Z,24.33
2022-11-27T17:48:17.618Z,21.98
2022-11-27T17:50:45.699Z,21.08
2022-11-27T17:53:14.419Z,20.23
2022-11-27T17:55:44.166Z,20.75
2022-11-27T17:58:12.674Z,19.05
2022-11-27T18:00:43.049Z,23.08
2022-11-27T18:03:12.372Z,23.70
2022-11-27T18:05:41.075Z,24.17
2022-11-27T18:08:09.943Z,25.92
2022-11-27T18:10:38.252Z,28.13
2022-11-27T18:13:08.023Z,25.23
2022-11-27T18:18:07.732Z,23.15
2022-11-27T18:20:37.773Z,23.13
2022-11-27T18:23:06.456Z,21.30
2022-11-27T18:25:34.610Z,19.77
2022-11-27T18:28:03.919Z,23.53
2022-11-27T18:30:36.163Z,22.42
2022-11-27T18:33:05.345Z,26.75
2022-11-27T18:35:33.501Z,23.23
2022-11-27T18:38:02.008Z,23.37
2022-11-27T18:40:33.581Z,29.38
2022-11-27T18:43:02.100Z,31.25
2022-11-27T18:45:35.385Z,30.27
2022-11-27T18:48:07.122Z,30.85
2022-11-27T18:50:35.601Z,25.80
2022-11-27T18:53:04.995Z,27.15
2022-11-27T18:55:35.121Z,29.50
2022-11-27T18:58:03.561Z,27.40
2022-11-27T19:00:31.680Z,28.52
2022-11-27T19:03:03.909Z,28.63
2022-11-27T19:05:32.125Z,28.55
2022-11-27T19:08:04.287Z,28.90
2022-11-27T19:10:33.514Z,23.92
2022-11-27T19:13:01.936Z,29.17
2022-11-27T19:15:30.194Z,29.08
2022-11-27T19:17:58.680Z,29.88
2022-11-27T19:20:29.965Z,32.33
2022-11-27T19:22:58.488Z,33.80
2022-11-27T19:25:26.702Z,33.80
2022-11-27T19:27:55.167Z,35.67
2022-11-27T19:30:23.302Z,39.22
2022-11-27T19:32:52.839Z,37.03
2022-11-27T19:35:24.670Z,41.28
2022-11-27T19:37:54.649Z,41.30
2022-11-27T19:40:23.341Z,41.80
2022-11-27T19:42:54.566Z,41.55
2022-11-27T19:45:26.275Z,39.85
2022-11-27T19:47:54.986Z,39.72
2022-11-27T19:50:23.347Z,38.00
2022-11-27T19:55:24.505Z,38.08
2022-11-27T19:57:53.184Z,39.60
2022-11-27T20:00:22.119Z,35.97
2022-11-27T20:02:50.810Z,32.25
2022-11-27T20:05:19.989Z,35.85
2022-11-27T20:07:48.739Z,37.55
2022-11-27T20:10:17.729Z,36.88
2022-11-27T20:12:47.586Z,40.95
2022-11-27T20:15:16.981Z,46.63
2022-11-27T20:20:14.252Z,48.42
2022-11-27T20:22:43.061Z,48.70
2022-11-27T20:25:20.247Z,49.00
2022-11-27T20:27:50.589Z,45.63
2022-11-27T20:30:19.777Z,47.70
2022-11-27T20:35:16.405Z,31.35
2022-11-27T20:37:45.142Z,34.83
2022-11-27T20:40:14.127Z,35.13
2022-11-27T20:42:42.856Z,33.95
2022-11-27T20:45:20.058Z,35.10
2022-11-27T20:47:49.610Z,35.17
2022-11-27T20:50:18.090Z,33.08
2022-11-27T20:52:47.108Z,38.00
2022-11-27T20:55:15.891Z,41.13
2022-11-27T20:57:44.896Z,38.17
2022-11-27T21:00:15.159Z,38.30
2022-11-27T21:02:43.619Z,36.33
2022-11-27T21:05:12.982Z,36.83
2022-11-27T21:07:43.454Z,33.17
2022-11-27T21:10:16.061Z,37.03
2022-11-27T21:12:45.027Z,38.00
2022-11-27T21:15:14.592Z,39.63
2022-11-27T21:17:43.216Z,34.15
2022-11-27T21:20:12.765Z,38.08
2022-11-27T21:22:44.280Z,43.47
2022-11-27T21:25:12.485Z,45.97
2022-11-27T21:27:41.113Z,40.83
2022-11-27T21:30:11.123Z,40.75
2022-11-27T21:32:42.421Z,40.08
2022-11-27T21:35:10.646Z,40.35
2022-11-27T21:37:39.512Z,43.72
2022-11-27T21:40:09.404Z,39.77
2022-11-27T21:42:42.998Z,39.00
2022-11-27T21:45:13.763Z,34.65
2022-11-27T21:47:44.285Z,39.78
2022-11-27T21:50:14.010Z,34.25
2022-11-27T21:52:42.443Z,37.83
2022-11-27T21:55:12.242Z,38.38
2022-11-27T21:57:41.317Z,36.42
2022-11-27T22:00:10.543Z,43.88
2022-11-27T22:02:39.377Z,40.05
2022-11-27T22:05:11.475Z,48.97
2022-11-27T22:07:40.114Z,39.22
2022-11-27T22:10:10.654Z,44.88
2022-11-27T22:12:39.247Z,37.05
2022-11-27T22:15:08.415Z,42.22
2022-11-27T22:20:07.362Z,55.38
2022-11-27T22:22:37.189Z,51.50
2022-11-27T22:25:05.904Z,44.78
2022-11-27T22:27:34.530Z,43.85
2022-11-27T22:30:02.707Z,37.42
2022-11-27T22:32:31.155Z,39.60
2022-11-27T22:34:59.507Z,37.55
2022-11-27T22:37:27.973Z,33.40
2022-11-27T22:39:57.503Z,32.67
2022-11-27T22:42:26.120Z,30.92
2022-11-27T22:44:54.206Z,26.67
2022-11-27T22:47:22.659Z,28.67
2022-11-27T22:49:51.152Z,25.15
2022-11-27T22:52:19.731Z,27.95
2022-11-27T22:54:47.824Z,27.75
2022-11-27T22:57:18.969Z,26.98
2022-11-27T22:59:47.216Z,27.80
2022-11-27T23:02:15.903Z,24.33
2022-11-27T23:04:44.869Z,28.08
2022-11-27T23:07:13.531Z,30.90
2022-11-27T23:09:42.234Z,26.77
2022-11-27T23:12:11.275Z,25.98
2022-11-27T23:14:41.261Z,25.45
2022-11-27T23:17:09.947Z,26.48
2022-11-27T23:19:38.209Z,26.55
2022-11-27T23:22:06.694Z,28.45
2022-11-27T23:24:34.796Z,25.65
2022-11-27T23:27:03.251Z,25.33
2022-11-27T23:29:31.399Z,23.77
2022-11-27T23:32:01.225Z,23.37
2022-11-27T23:34:30.037Z,25.08
2022-11-27T23:36:58.521Z,23.13
2022-11-27T23:39:26.740Z,23.83
2022-11-27T23:41:55.210Z,23.83
2022-11-27T23:44:23.383Z,24.10
2022-11-27T23:46:51.907Z,23.58
2022-11-27T23:49:21.505Z,23.60
2022-11-27T23:51:49.958Z,25.50
2022-11-27T23:54:18.213Z,26.02
2022-11-27T23:56:46.591Z,24.67
2022-11-27T23:59:14.755Z,24.77
